Time;durP1;ratioP1;P1;durP2;ratioP2;P2;SDS_P1;SDS_P2;PMS_P1;PMS_P2;Temp;Humidity;BMP_temperature;BMP_pressure;BME280_temperature;BME280_humidity;BME280_pressure;Samples;Min_cycle;Max_cycle;Signal;HPM_P1;HPM_P2
2022/08/18 00:01:43;;;;;;;52.15;41.83;;;19.50;99.90;;;;;;5013839;28;20393;-88
2022/08/18 00:04:10;;;;;;;55.78;42.60;;;19.40;99.90;;;;;;4995417;28;20045;-88
2022/08/18 00:06:35;;;;;;;56.05;42.13;;;19.40;99.90;;;;;;4996394;28;20081;-88
2022/08/18 00:09:05;;;;;;;50.50;39.78;;;19.30;99.90;;;;;;4996442;28;20030;-88
2022/08/18 00:11:37;;;;;;;53.70;40.92;;;19.30;99.90;;;;;;5011644;28;20028;-87
2022/08/18 00:14:03;;;;;;;54.72;40.47;;;19.20;99.90;;;;;;4990881;28;20038;-88
2022/08/18 00:16:28;;;;;;;52.90;42.33;;;19.10;99.90;;;;;;4997008;28;20101;-88
2022/08/18 00:18:54;;;;;;;51.20;39.22;;;19.10;99.90;;;;;;4987965;28;20080;-88
2022/08/18 00:21:20;;;;;;;49.80;40.47;;;19.10;99.90;;;;;;4994733;28;20033;-87
2022/08/18 00:23:45;;;;;;;48.42;39.55;;;19.20;99.90;;;;;;4993823;28;20033;-88
2022/08/18 00:26:11;;;;;;;52.97;38.90;;;19.20;99.90;;;;;;4998266;28;20032;-88
2022/08/18 00:28:37;;;;;;;48.35;38.35;;;19.20;99.90;;;;;;4994327;28;20482;-87
2022/08/18 00:31:04;;;;;;;43.75;35.97;;;19.30;99.90;;;;;;4996222;28;20050;-88
2022/08/18 00:33:30;;;;;;;46.63;36.78;;;19.20;99.90;;;;;;4993173;28;20032;-88
2022/08/18 00:35:55;;;;;;;42.15;35.65;;;19.30;99.90;;;;;;4996536;28;20100;-87
2022/08/18 00:38:21;;;;;;;43.35;35.15;;;19.30;99.90;;;;;;4994521;28;20117;-87
2022/08/18 00:40:48;;;;;;;43.28;35.45;;;19.30;99.90;;;;;;4995414;28;20453;-86
2022/08/18 00:43:23;;;;;;;42.80;35.65;;;19.20;99.90;;;;;;5009659;28;20531;-88
2022/08/18 00:45:49;;;;;;;43.17;34.00;;;19.20;99.90;;;;;;4987867;28;20026;-88
2022/08/18 00:48:15;;;;;;;42.28;34.90;;;19.20;99.90;;;;;;4995598;28;20022;-87
2022/08/18 00:50:56;;;;;;;41.17;32.45;;;19.10;99.90;;;;;;4980687;28;20038;-87
2022/08/18 00:53:25;;;;;;;41.90;33.50;;;19.10;99.90;;;;;;4988977;28;20031;-88
2022/08/18 00:55:51;;;;;;;47.95;35.67;;;19.00;99.90;;;;;;4995072;28;20141;-87
2022/08/18 00:58:27;;;;;;;43.05;34.55;;;19.00;99.90;;;;;;4996277;28;20018;-87
2022/08/18 01:00:53;;;;;;;44.65;33.80;;;18.90;99.90;;;;;;5012183;28;20030;-87
2022/08/18 01:03:22;;;;;;;45.78;34.92;;;18.90;99.90;;;;;;5009251;28;20048;-87
2022/08/18 01:05:58;;;;;;;42.88;34.45;;;18.90;99.90;;;;;;5014968;28;20030;-87
2022/08/18 01:08:25;;;;;;;48.25;34.97;;;18.90;99.90;;;;;;5015044;28;20037;-87
2022/08/18 01:10:50;;;;;;;44.08;34.35;;;18.80;99.90;;;;;;5016527;28;20067;-88
2022/08/18 01:13:19;;;;;;;45.72;36.45;;;18.80;99.90;;;;;;5014219;28;20056;-88
2022/08/18 01:15:44;;;;;;;44.92;34.50;;;18.90;99.90;;;;;;5015544;28;20042;-88
2022/08/18 01:23:56;;;;;;;41.75;33.00;;;18.70;99.90;;;;;;5028977;28;20048;-89
2022/08/18 01:26:24;;;;;;;40.95;32.25;;;18.70;99.90;;;;;;5014712;28;20121;-88
2022/08/18 01:28:51;;;;;;;39.92;32.50;;;18.60;99.90;;;;;;5032098;28;20077;-86
2022/08/18 01:31:53;;;;;;;40.58;32.35;;;18.60;99.90;;;;;;5009879;28;20037;-87
2022/08/18 01:34:22;;;;;;;41.72;31.27;;;18.50;99.90;;;;;;4982127;28;20056;-87
2022/08/18 01:36:51;;;;;;;41.03;31.20;;;18.50;99.90;;;;;;5016531;28;20037;-87
2022/08/18 01:39:18;;;;;;;41.08;30.45;;;18.40;99.90;;;;;;5015362;28;20155;-87
2022/08/18 01:41:43;;;;;;;39.47;31.50;;;18.30;99.90;;;;;;5015039;28;20041;-87
2022/08/18 01:44:10;;;;;;;39.28;31.27;;;18.20;99.90;;;;;;5015807;28;20018;-88
2022/08/18 01:46:37;;;;;;;39.88;32.15;;;18.20;99.90;;;;;;5014036;28;20030;-88
2022/08/18 01:49:04;;;;;;;35.22;29.83;;;18.20;99.90;;;;;;5009450;28;20021;-89
2022/08/18 01:51:31;;;;;;;37.13;30.90;;;18.10;99.90;;;;;;5014155;28;20026;-88
2022/08/18 01:53:58;;;;;;;38.42;31.40;;;18.10;99.90;;;;;;5026665;28;20029;-88
2022/08/18 01:56:26;;;;;;;37.30;30.83;;;18.10;99.90;;;;;;5008542;28;20041;-88
2022/08/18 01:58:53;;;;;;;40.63;32.67;;;18.00;99.90;;;;;;5011474;28;20065;-89
2022/08/18 02:01:21;;;;;;;39.35;30.42;;;18.00;99.90;;;;;;5018553;28;20025;-88
2022/08/18 02:03:53;;;;;;;42.50;31.35;;;18.00;99.90;;;;;;5013322;28;20049;-88
2022/08/18 02:06:18;;;;;;;37.55;30.90;;;18.00;99.90;;;;;;5015879;28;20036;-87
2022/08/18 02:08:46;;;;;;;37.28;30.42;;;17.90;99.90;;;;;;5006582;28;20038;-88
2022/08/18 02:11:12;;;;;;;40.22;31.33;;;17.90;99.90;;;;;;5028456;28;20025;-88
2022/08/18 02:13:39;;;;;;;42.30;31.50;;;17.90;99.90;;;;;;5022804;28;20025;-88
2022/08/18 02:16:06;;;;;;;44.40;33.47;;;17.90;99.90;;;;;;5027978;28;20033;-89
2022/08/18 02:18:35;;;;;;;39.45;32.72;;;17.80;99.90;;;;;;5013411;28;20075;-88
2022/08/18 02:21:10;;;;;;;40.17;31.13;;;17.80;99.90;;;;;;5014499;28;20037;-88
2022/08/18 02:23:37;;;;;;;42.33;31.42;;;17.80;99.90;;;;;;5014875;28;20436;-87
2022/08/18 02:26:05;;;;;;;37.92;31.65;;;17.80;99.90;;;;;;5009146;28;20018;-88
2022/08/18 02:28:30;;;;;;;37.20;30.75;;;17.90;99.90;;;;;;5021823;28;20026;-88
2022/08/18 02:30:56;;;;;;;38.63;29.73;;;18.00;99.90;;;;;;5015641;28;20029;-88
2022/08/18 02:33:21;;;;;;;38.78;29.02;;;18.00;99.90;;;;;;5010381;28;20478;-87
2022/08/18 02:35:53;;;;;;;38.13;29.25;;;18.00;99.90;;;;;;5005768;28;20037;-88
2022/08/18 02:38:18;;;;;;;32.33;26.13;;;18.10;99.90;;;;;;5032047;28;20018;-88
2022/08/18 02:40:45;;;;;;;32.42;26.50;;;18.10;99.90;;;;;;5024149;28;20041;-88
2022/08/18 02:43:11;;;;;;;37.53;27.27;;;18.10;99.90;;;;;;5019644;28;20036;-88
2022/08/18 02:45:38;;;;;;;35.05;27.20;;;18.20;99.90;;;;;;5019971;28;20033;-88
2022/08/18 02:48:04;;;;;;;36.05;26.40;;;18.20;99.90;;;;;;5016255;28;20412;-88
2022/08/18 02:50:30;;;;;;;35.85;26.17;;;18.30;99.90;;;;;;5020793;28;20109;-88
2022/08/18 02:52:55;;;;;;;42.30;27.73;;;18.40;99.90;;;;;;5017638;28;20037;-88
2022/08/18 02:55:22;;;;;;;35.33;27.50;;;18.30;99.90;;;;;;5010172;28;20120;-87
2022/08/18 02:57:48;;;;;;;35.42;27.55;;;18.30;99.90;;;;;;5053786;28;20048;-88
2022/08/18 03:00:15;;;;;;;32.45;26.45;;;18.30;99.90;;;;;;5041507;28;20040;-87
2022/08/18 03:02:50;;;;;;;37.20;26.13;;;18.30;99.90;;;;;;5037029;28;20056;-87
2022/08/18 03:05:16;;;;;;;34.35;26.15;;;18.40;99.90;;;;;;5004926;28;20026;-87
2022/08/18 03:07:42;;;;;;;34.70;26.30;;;18.30;99.90;;;;;;5032735;28;20044;-87
2022/08/18 03:10:08;;;;;;;32.80;26.52;;;18.30;99.90;;;;;;5019711;28;20076;-87
2022/08/18 03:12:34;;;;;;;32.75;26.13;;;18.30;99.90;;;;;;5034309;28;20473;-88
2022/08/18 03:15:00;;;;;;;33.88;25.75;;;18.30;99.90;;;;;;5018328;28;20028;-87
2022/08/18 03:17:26;;;;;;;37.55;25.90;;;18.30;99.90;;;;;;5029652;28;20034;-87
2022/08/18 03:19:52;;;;;;;35.30;26.92;;;18.30;99.90;;;;;;5015158;28;20037;-87
2022/08/18 03:22:18;;;;;;;36.58;27.40;;;18.30;99.90;;;;;;5013479;28;20025;-87
2022/08/18 03:24:43;;;;;;;30.67;24.77;;;18.30;99.90;;;;;;5020232;28;20199;-87
2022/08/18 03:27:09;;;;;;;32.47;25.10;;;18.30;99.90;;;;;;5018975;28;20033;-87
2022/08/18 03:29:34;;;;;;;30.08;24.65;;;18.30;99.90;;;;;;5036005;28;20038;-87
2022/08/18 03:32:02;;;;;;;33.70;24.38;;;18.30;99.90;;;;;;5033074;28;20030;-87
2022/08/18 03:34:28;;;;;;;28.20;23.45;;;18.30;99.90;;;;;;5035945;28;20025;-87
2022/08/18 03:36:54;;;;;;;30.00;24.90;;;18.30;99.90;;;;;;5019041;28;20076;-87
2022/08/18 03:39:22;;;;;;;32.75;24.05;;;18.30;99.90;;;;;;5018242;28;20121;-87
2022/08/18 03:41:50;;;;;;;33.60;24.70;;;18.30;99.90;;;;;;5018807;28;20029;-86
2022/08/18 03:44:16;;;;;;;35.60;25.02;;;18.40;99.90;;;;;;5013204;28;20071;-88
2022/08/18 03:46:42;;;;;;;35.22;25.85;;;18.30;99.90;;;;;;5018999;28;20025;-87
2022/08/18 03:49:08;;;;;;;30.55;24.48;;;18.30;99.90;;;;;;5015903;28;20022;-87
2022/08/18 03:51:34;;;;;;;31.65;24.13;;;18.40;99.90;;;;;;5024543;28;20075;-87
2022/08/18 03:54:02;;;;;;;33.67;24.67;;;18.40;99.90;;;;;;5017831;28;20025;-88
2022/08/18 03:56:35;;;;;;;35.60;24.75;;;18.40;99.90;;;;;;5018806;28;20040;-88
2022/08/18 03:59:03;;;;;;;29.05;24.20;;;18.40;99.90;;;;;;5015275;28;20084;-88
2022/08/18 04:01:32;;;;;;;34.30;25.67;;;18.40;99.90;;;;;;5006231;28;20033;-86
2022/08/18 04:04:02;;;;;;;31.73;25.52;;;18.50;99.90;;;;;;5018588;28;20029;-87
2022/08/18 04:06:39;;;;;;;31.48;25.35;;;18.50;99.90;;;;;;5018966;28;20109;-87
2022/08/18 04:09:07;;;;;;;31.50;25.63;;;18.50;99.90;;;;;;5034979;28;20026;-88
2022/08/18 04:11:35;;;;;;;30.63;25.67;;;18.50;99.90;;;;;;5017981;28;20031;-87
2022/08/18 04:14:01;;;;;;;35.10;26.13;;;18.50;99.90;;;;;;5035628;28;20519;-87
2022/08/18 04:16:28;;;;;;;37.97;27.85;;;18.50;99.90;;;;;;5023086;28;21042;-88
2022/08/18 04:18:58;;;;;;;40.28;29.90;;;18.50;99.90;;;;;;5016980;28;20116;-87
2022/08/18 04:21:24;;;;;;;37.45;29.58;;;18.60;99.90;;;;;;5021862;28;20083;-88
2022/08/18 04:23:50;;;;;;;39.75;31.63;;;18.50;99.90;;;;;;5033080;28;20030;-87
2022/08/18 04:26:17;;;;;;;38.80;29.83;;;18.60;99.90;;;;;;5015699;28;20044;-88
2022/08/18 04:28:43;;;;;;;39.88;30.88;;;18.50;99.90;;;;;;5029412;28;20033;-88
2022/08/18 04:31:11;;;;;;;40.50;32.45;;;18.50;99.90;;;;;;5030422;28;20041;-87
2022/08/18 04:33:38;;;;;;;43.90;34.75;;;18.50;99.90;;;;;;5018610;28;20033;-88
2022/08/18 04:36:12;;;;;;;51.30;38.08;;;18.50;99.90;;;;;;5035243;28;20045;-88
2022/08/18 04:38:40;;;;;;;53.83;39.33;;;18.50;99.90;;;;;;5035035;28;20036;-87
2022/08/18 04:41:07;;;;;;;58.03;40.13;;;18.50;99.90;;;;;;5031148;28;20028;-88
2022/08/18 04:43:32;;;;;;;54.13;39.13;;;18.50;99.90;;;;;;5018635;28;20018;-87
2022/08/18 04:46:00;;;;;;;54.20;39.88;;;18.50;99.90;;;;;;5014947;28;20034;-87
2022/08/18 04:48:35;;;;;;;58.88;42.80;;;18.50;99.90;;;;;;5014898;28;20126;-87
2022/08/18 04:51:05;;;;;;;59.05;41.58;;;18.50;99.90;;;;;;5018680;28;20025;-87
2022/08/18 04:53:45;;;;;;;56.55;41.22;;;18.50;99.90;;;;;;5039396;28;20453;-87
2022/08/18 04:56:32;;;;;;;59.78;41.15;;;18.50;99.90;;;;;;5017692;28;20030;-87
2022/08/18 04:59:12;;;;;;;54.42;37.63;;;18.50;99.90;;;;;;5010132;28;20036;-88
2022/08/18 05:01:41;;;;;;;52.33;38.33;;;18.50;99.90;;;;;;5008593;28;20029;-88
2022/08/18 05:04:07;;;;;;;48.53;37.33;;;18.50;99.90;;;;;;4996839;28;20614;-88
2022/08/18 05:06:34;;;;;;;50.42;36.22;;;18.50;99.90;;;;;;4994757;28;20038;-89
2022/08/18 05:09:05;;;;;;;47.30;35.28;;;18.50;99.90;;;;;;5011363;28;20045;-88
2022/08/18 05:11:34;;;;;;;52.10;35.80;;;18.50;99.90;;;;;;4988631;28;20061;-88
2022/08/18 05:14:02;;;;;;;46.65;35.15;;;18.60;99.90;;;;;;4996234;28;20022;-87
2022/08/18 05:16:34;;;;;;;46.38;33.00;;;18.50;99.90;;;;;;4979347;28;20047;-89
2022/08/18 05:19:05;;;;;;;42.33;30.13;;;18.60;99.90;;;;;;4997545;28;20022;-89
2022/08/18 05:21:32;;;;;;;41.78;29.55;;;18.50;99.90;;;;;;4998727;28;20026;-89
2022/08/18 05:23:59;;;;;;;36.30;28.25;;;18.50;99.90;;;;;;4995543;28;20556;-87
2022/08/18 05:26:26;;;;;;;38.70;27.27;;;18.50;99.90;;;;;;4998472;28;20025;-87
2022/08/18 05:28:52;;;;;;;35.40;27.45;;;18.50;99.90;;;;;;5002283;28;20109;-87
2022/08/18 05:31:20;;;;;;;39.75;27.92;;;18.50;99.90;;;;;;4994125;28;20458;-88
2022/08/18 05:33:47;;;;;;;39.97;28.45;;;18.50;99.90;;;;;;5008615;28;20029;-88
2022/08/18 05:36:47;;;;;;;38.75;26.35;;;18.50;99.90;;;;;;4998308;28;20034;-88
2022/08/18 05:39:23;;;;;;;36.40;25.52;;;18.50;99.90;;;;;;5011717;28;20441;-88
2022/08/18 05:42:06;;;;;;;34.38;25.52;;;18.60;99.90;;;;;;4988337;28;20030;-87
2022/08/18 05:44:36;;;;;;;36.08;25.63;;;18.60;99.90;;;;;;4986503;28;20049;-88
2022/08/18 05:47:10;;;;;;;41.65;28.02;;;18.70;99.90;;;;;;4993863;28;20018;-87
2022/08/18 05:49:37;;;;;;;43.15;29.85;;;18.70;99.90;;;;;;4995350;28;20548;-88
2022/08/18 05:52:07;;;;;;;42.33;29.42;;;18.80;99.90;;;;;;4997413;28;20022;-87
2022/08/18 05:57:31;;;;;;;36.83;28.13;;;18.90;99.90;;;;;;5007482;28;20072;-87
2022/08/18 05:59:57;;;;;;;38.58;27.95;;;18.90;99.90;;;;;;4994347;28;20041;-87
2022/08/18 06:02:37;;;;;;;37.50;27.90;;;18.90;99.90;;;;;;5011355;28;20056;-87
2022/08/18 06:05:10;;;;;;;47.30;28.23;;;18.90;99.90;;;;;;5020776;28;20040;-87
2022/08/18 06:07:45;;;;;;;45.10;31.05;;;19.00;99.90;;;;;;5021019;28;20026;-87
2022/08/18 06:10:11;;;;;;;44.35;31.63;;;19.10;99.90;;;;;;5021559;28;20060;-87
2022/08/18 06:12:40;;;;;;;41.30;31.33;;;19.10;99.90;;;;;;5019819;28;20038;-87
2022/08/18 06:15:20;;;;;;;46.17;32.42;;;19.20;99.90;;;;;;5021029;28;20480;-88
2022/08/18 06:17:46;;;;;;;36.72;27.20;;;19.20;99.90;;;;;;5020606;28;20062;-87
2022/08/18 06:20:21;;;;;;;32.97;26.00;;;19.30;99.90;;;;;;5020884;28;20453;-88
2022/08/18 06:22:55;;;;;;;28.40;23.42;;;19.30;99.90;;;;;;5024412;28;20038;-88
2022/08/18 06:25:34;;;;;;;30.98;24.13;;;19.40;99.90;;;;;;5009600;28;20022;-88
2022/08/18 06:28:11;;;;;;;27.90;23.05;;;19.40;99.90;;;;;;5013748;28;20026;-88
2022/08/18 06:30:46;;;;;;;26.75;21.77;;;19.50;99.90;;;;;;5017945;28;20034;-88
2022/08/18 06:33:39;;;;;;;24.08;20.98;;;19.50;99.90;;;;;;5021189;28;20105;-88
2022/08/18 06:36:24;;;;;;;23.95;20.65;;;19.60;99.90;;;;;;5016012;28;20132;-88
2022/08/18 06:39:10;;;;;;;23.98;19.52;;;19.70;99.90;;;;;;5020093;28;20470;-88
2022/08/18 06:41:47;;;;;;;22.60;18.73;;;19.70;99.90;;;;;;5021509;28;20029;-88
2022/08/18 06:44:30;;;;;;;23.05;17.35;;;19.70;99.90;;;;;;5037194;28;20026;-89
2022/08/18 06:47:39;;;;;;;20.98;16.55;;;19.80;99.90;;;;;;5036782;28;20029;-88
2022/08/18 06:50:29;;;;;;;19.67;17.48;;;19.90;99.90;;;;;;5007072;28;20038;-89
2022/08/18 06:53:04;;;;;;;21.63;17.85;;;20.10;99.90;;;;;;5020639;28;20052;-89
2022/08/18 06:55:31;;;;;;;21.25;18.95;;;20.30;99.90;;;;;;5018410;28;20406;-89
2022/08/18 06:58:00;;;;;;;22.33;17.77;;;20.50;99.90;;;;;;5037234;28;20022;-89
2022/08/18 07:00:28;;;;;;;21.10;17.92;;;20.60;99.90;;;;;;5020113;28;20022;-88
2022/08/18 07:03:10;;;;;;;24.60;16.95;;;20.70;99.90;;;;;;5018093;28;20046;-88
2022/08/18 07:05:37;;;;;;;20.27;13.83;;;20.70;99.90;;;;;;5017515;28;20389;-89
2022/08/18 07:08:31;;;;;;;18.50;14.75;;;20.70;99.90;;;;;;5020317;28;20087;-88
2022/08/18 07:11:26;;;;;;;15.80;14.00;;;20.60;99.90;;;;;;5020255;28;20036;-89
2022/08/18 07:13:55;;;;;;;15.65;13.45;;;20.40;99.90;;;;;;5016970;28;20085;-88
2022/08/18 07:16:26;;;;;;;17.00;15.15;;;20.30;99.90;;;;;;5013496;28;20030;-89
2022/08/18 07:18:52;;;;;;;18.85;15.07;;;20.20;99.90;;;;;;5008127;28;20076;-89
2022/08/18 07:21:29;;;;;;;17.55;14.65;;;20.20;99.90;;;;;;5016518;28;20029;-89
2022/08/18 07:24:10;;;;;;;17.85;14.80;;;20.30;99.90;;;;;;5016644;28;20033;-88
2022/08/18 07:27:00;;;;;;;16.65;14.30;;;20.40;99.90;;;;;;5015535;28;20094;-89
2022/08/18 07:29:27;;;;;;;14.23;12.32;;;20.50;99.90;;;;;;5015809;28;20478;-88
2022/08/18 07:31:54;;;;;;;13.63;11.23;;;20.70;99.90;;;;;;5016348;28;20022;-88
2022/08/18 07:34:26;;;;;;;15.05;12.90;;;20.80;99.90;;;;;;5017601;28;20105;-89
2022/08/18 07:36:59;;;;;;;18.73;16.65;;;20.90;99.90;;;;;;5016388;28;20040;-89
2022/08/18 07:39:37;;;;;;;22.00;16.67;;;21.00;99.90;;;;;;5017181;28;20060;-89
2022/08/18 07:42:17;;;;;;;18.50;14.55;;;21.10;99.90;;;;;;5017739;28;20045;-88
2022/08/18 07:45:00;;;;;;;13.48;11.55;;;21.30;99.90;;;;;;5014197;28;20338;-87
2022/08/18 07:47:48;;;;;;;10.55;9.40;;;21.60;99.90;;;;;;5017632;28;20018;-86
2022/08/18 07:50:14;;;;;;;9.35;8.45;;;21.80;99.90;;;;;;5006934;28;20083;-88
2022/08/18 07:53:04;;;;;;;11.23;7.90;;;22.10;99.90;;;;;;5017483;28;20489;-88
2022/08/18 07:55:34;;;;;;;13.45;9.30;;;22.20;99.90;;;;;;5017066;28;20540;-89
2022/08/18 07:58:25;;;;;;;10.73;7.82;;;22.30;99.90;;;;;;5015932;28;20018;-88
2022/08/18 08:01:04;;;;;;;10.20;7.20;;;22.50;99.90;;;;;;5016333;28;20026;-88
2022/08/18 08:03:45;;;;;;;7.80;7.00;;;22.60;99.90;;;;;;5008103;28;20044;-89
2022/08/18 08:06:26;;;;;;;7.87;6.93;;;22.70;99.90;;;;;;5030971;28;20034;-87
2022/08/18 08:09:24;;;;;;;8.95;6.53;;;22.80;99.90;;;;;;5031947;28;20029;-87
2022/08/18 08:12:01;;;;;;;9.02;7.00;;;22.80;99.90;;;;;;4998387;28;20437;-88
2022/08/18 08:14:42;;;;;;;7.75;6.40;;;22.70;99.90;;;;;;5012349;28;20030;-87
2022/08/18 08:17:32;;;;;;;7.25;6.57;;;22.70;99.90;;;;;;5022115;28;20054;-88
2022/08/18 08:20:20;;;;;;;9.90;7.20;;;22.70;99.90;;;;;;5016009;28;20052;-89
2022/08/18 08:23:04;;;;;;;9.25;7.72;;;22.80;99.90;;;;;;5016031;28;20068;-88
2022/08/18 08:25:53;;;;;;;10.35;7.13;;;22.80;99.90;;;;;;5015585;28;20105;-88
2022/08/18 08:28:40;;;;;;;7.35;6.25;;;23.00;99.90;;;;;;4965320;28;20485;-88
2022/08/18 08:31:27;;;;;;;9.07;7.60;;;23.10;99.90;;;;;;5015957;28;20542;-89
2022/08/18 08:34:04;;;;;;;8.80;6.70;;;23.30;99.90;;;;;;5016128;28;20026;-89
2022/08/18 08:36:34;;;;;;;8.75;7.60;;;23.40;99.90;;;;;;5012151;28;20038;-88
2022/08/18 08:39:05;;;;;;;9.98;7.28;;;23.50;99.90;;;;;;5004991;28;20032;-88
2022/08/18 08:41:38;;;;;;;8.57;7.70;;;23.60;99.90;;;;;;5015281;28;20037;-88
2022/08/18 08:44:23;;;;;;;9.93;8.27;;;23.80;99.90;;;;;;5031825;28;20030;-88
2022/08/18 08:46:56;;;;;;;9.80;6.75;;;23.80;99.90;;;;;;5015262;28;20076;-88
2022/08/18 08:49:30;;;;;;;7.18;6.25;;;23.60;99.90;;;;;;5014681;28;20022;-88
2022/08/18 08:52:03;;;;;;;6.28;5.15;;;23.40;99.90;;;;;;5016002;28;20076;-89
2022/08/18 08:54:34;;;;;;;6.57;5.60;;;23.20;99.90;;;;;;5016463;28;20048;-88
2022/08/18 08:57:01;;;;;;;7.50;6.55;;;23.10;99.90;;;;;;5027149;28;20125;-89
2022/08/18 08:59:26;;;;;;;8.70;6.13;;;23.00;99.90;;;;;;5007490;28;20414;-89
2022/08/18 09:02:14;;;;;;;7.35;6.15;;;22.90;99.90;;;;;;5014852;28;20096;-89
2022/08/18 09:05:13;;;;;;;8.82;5.75;;;22.90;99.90;;;;;;5014501;28;20033;-89
2022/08/18 09:07:42;;;;;;;9.45;6.88;;;22.90;99.90;;;;;;5014950;28;20030;-88
2022/08/18 09:10:25;;;;;;;8.75;6.97;;;23.00;99.90;;;;;;5031099;28;20483;-88
2022/08/18 09:13:04;;;;;;;7.68;6.03;;;23.20;99.90;;;;;;5015248;28;20036;-88
2022/08/18 09:15:56;;;;;;;7.22;5.68;;;23.30;99.90;;;;;;5015102;28;20478;-88
2022/08/18 09:18:32;;;;;;;;;;;23.30;99.90;;;;;;5015518;28;20057;-89
2022/08/18 09:21:27;;;;;;;9.25;6.03;;;23.30;99.90;;;;;;5011777;28;19916;-86
2022/08/18 09:24:05;;;;;;;6.10;4.38;;;23.60;99.90;;;;;;4995610;28;20565;-88
2022/08/18 09:26:37;;;;;;;5.57;4.43;;;23.80;99.90;;;;;;5013595;28;20111;-88
2022/08/18 09:29:17;;;;;;;7.03;4.38;;;24.10;99.90;;;;;;5009222;28;20479;-87
2022/08/18 09:31:45;;;;;;;5.28;4.15;;;24.30;99.90;;;;;;5003451;28;20527;-88
2022/08/18 09:34:36;;;;;;;5.97;3.63;;;24.50;99.90;;;;;;5014463;28;20030;-88
2022/08/18 09:37:11;;;;;;;5.18;3.38;;;24.70;99.90;;;;;;5013571;28;20042;-88
2022/08/18 09:42:46;;;;;;;3.55;3.25;;;24.90;99.90;;;;;;5015547;28;20100;-88
2022/08/18 09:45:30;;;;;;;4.47;2.80;;;24.90;99.90;;;;;;5016728;28;20026;-88
2022/08/18 09:48:02;;;;;;;4.72;3.17;;;24.70;99.90;;;;;;5016026;28;20033;-87
2022/08/18 09:50:32;;;;;;;3.53;3.20;;;24.50;99.90;;;;;;5013890;28;20508;-88
2022/08/18 09:53:29;;;;;;;4.05;3.55;;;24.40;99.90;;;;;;5014983;28;20022;-87
2022/08/18 09:55:56;;;;;;;5.43;3.70;;;24.30;99.90;;;;;;5014439;28;20053;-87
2022/08/18 09:58:25;;;;;;;4.20;3.63;;;24.20;99.90;;;;;;5015679;28;20021;-88
2022/08/18 10:01:33;;;;;;;5.55;3.33;;;24.20;99.90;;;;;;5015154;28;20414;-87
2022/08/18 10:04:13;;;;;;;6.07;2.97;;;24.30;99.90;;;;;;5014709;28;20045;-87
2022/08/18 10:06:45;;;;;;;5.80;3.25;;;24.50;99.90;;;;;;5010969;28;20502;-87
2022/08/18 10:09:42;;;;;;;5.40;2.97;;;24.70;99.90;;;;;;5011709;28;20018;-88
2022/08/18 10:12:22;;;;;;;4.05;3.42;;;24.80;99.90;;;;;;5016888;28;20573;-87
2022/08/18 10:15:02;;;;;;;3.28;2.70;;;25.00;99.90;;;;;;5015471;28;20389;-88
2022/08/18 10:17:49;;;;;;;3.03;2.30;;;25.10;99.90;;;;;;5013943;28;20133;-88
2022/08/18 10:20:41;;;;;;;4.25;2.45;;;25.30;99.90;;;;;;5013802;28;20026;-87
2022/08/18 10:23:08;;;;;;;3.47;2.90;;;25.50;99.90;;;;;;5030537;28;20030;-87
2022/08/18 10:25:38;;;;;;;3.78;2.85;;;25.60;99.90;;;;;;5014018;28;20081;-88
2022/08/18 10:28:06;;;;;;;4.35;2.25;;;25.60;99.70;;;;;;5030321;28;20026;-88
2022/08/18 10:30:32;;;;;;;5.40;2.75;;;25.50;99.60;;;;;;5012697;28;20026;-88
2022/08/18 10:32:59;;;;;;;3.95;2.60;;;25.30;99.10;;;;;;5013867;28;20172;-88
2022/08/18 10:35:34;;;;;;;4.68;2.28;;;25.10;99.40;;;;;;5012760;28;20097;-88
2022/08/18 10:38:21;;;;;;;4.30;2.35;;;25.00;99.60;;;;;;5014099;28;20037;-87
2022/08/18 10:41:04;;;;;;;2.42;2.22;;;25.10;99.50;;;;;;5014056;28;20064;-88
2022/08/18 10:43:50;;;;;;;3.22;2.33;;;25.30;99.00;;;;;;5013119;28;20509;-88
2022/08/18 10:46:35;;;;;;;4.30;3.20;;;25.50;98.90;;;;;;5012936;28;20021;-87
2022/08/18 10:49:20;;;;;;;6.03;3.85;;;25.80;98.60;;;;;;5016230;28;20026;-88
2022/08/18 10:52:03;;;;;;;4.35;3.50;;;25.90;98.20;;;;;;5017447;28;20037;-88
2022/08/18 10:54:48;;;;;;;4.40;3.35;;;25.90;98.00;;;;;;5014076;28;20049;-88
2022/08/18 10:57:23;;;;;;;3.78;2.92;;;25.90;97.70;;;;;;5004371;28;20034;-88
2022/08/18 11:00:06;;;;;;;3.72;3.25;;;25.90;97.80;;;;;;5003783;28;20077;-88
2022/08/18 11:02:59;;;;;;;5.72;3.70;;;25.90;97.90;;;;;;5016840;28;20095;-88
2022/08/18 11:05:27;;;;;;;3.58;3.03;;;25.90;98.10;;;;;;5018946;28;20022;-88
2022/08/18 11:08:00;;;;;;;4.30;2.70;;;25.80;98.40;;;;;;5017718;28;20030;-89
2022/08/18 11:10:47;;;;;;;4.63;2.75;;;25.90;97.90;;;;;;5016910;28;20032;-88
2022/08/18 11:13:57;;;;;;;3.63;3.17;;;26.00;97.80;;;;;;5016919;28;20116;-88
2022/08/18 11:16:35;;;;;;;5.95;3.13;;;26.20;97.60;;;;;;5017732;28;20053;-88
2022/08/18 11:19:11;;;;;;;5.07;3.22;;;26.30;97.20;;;;;;5033978;28;20029;-88
2022/08/18 11:21:37;;;;;;;4.43;2.92;;;26.50;96.70;;;;;;5017074;28;20056;-90
2022/08/18 11:24:14;;;;;;;3.83;2.20;;;26.70;96.60;;;;;;5018352;28;20068;-89
2022/08/18 11:27:05;;;;;;;2.88;2.13;;;27.00;96.30;;;;;;5016659;28;20033;-89
2022/08/18 11:29:39;;;;;;;3.42;2.33;;;27.40;95.80;;;;;;5009484;28;20120;-87
2022/08/18 11:32:12;;;;;;;2.35;1.95;;;27.50;94.70;;;;;;5018241;28;20030;-87
2022/08/18 11:34:45;;;;;;;3.72;2.33;;;27.50;94.60;;;;;;5017680;28;20078;-88
2022/08/18 11:37:38;;;;;;;4.05;1.95;;;27.60;94.20;;;;;;4997354;28;20054;-88
2022/08/18 11:40:22;;;;;;;3.15;2.30;;;27.60;93.60;;;;;;5014351;28;20046;-88
2022/08/18 11:43:26;;;;;;;2.83;2.10;;;27.40;93.50;;;;;;5013648;28;20022;-87
2022/08/18 11:45:58;;;;;;;10.93;2.30;;;27.10;93.70;;;;;;4903307;29;20032;-87
2022/08/18 11:48:46;;;;;;;2.85;1.65;;;27.00;93.50;;;;;;4993513;28;20427;-87
2022/08/18 11:51:16;;;;;;;4.93;2.40;;;27.10;93.30;;;;;;5015944;28;20079;-87
2022/08/18 11:53:47;;;;;;;3.17;2.65;;;27.00;93.10;;;;;;5017917;28;20050;-87
2022/08/18 11:56:13;;;;;;;2.63;1.80;;;27.00;92.70;;;;;;5017465;28;20500;-87
2022/08/18 11:58:44;;;;;;;7.65;2.67;;;27.10;92.80;;;;;;5016161;28;20061;-87
2022/08/18 12:01:30;;;;;;;;;;;27.40;92.20;;;;;;5016924;28;20025;-88
2022/08/18 12:04:09;;;;;;;3.22;1.92;;;27.30;92.50;;;;;;5017365;28;19917;-88
2022/08/18 12:06:37;;;;;;;3.15;2.13;;;27.30;92.20;;;;;;5021534;28;20049;-88
2022/08/18 12:09:13;;;;;;;3.28;2.65;;;27.30;92.20;;;;;;5015900;28;20094;-88
2022/08/18 12:11:56;;;;;;;3.85;2.17;;;27.50;91.90;;;;;;5018814;28;20026;-88
2022/08/18 12:14:25;;;;;;;2.90;1.77;;;27.60;91.80;;;;;;5016447;28;20026;-89
2022/08/18 12:16:52;;;;;;;3.65;2.03;;;27.70;91.70;;;;;;5017442;28;20034;-89
2022/08/18 12:19:18;;;;;;;3.13;2.00;;;27.70;91.60;;;;;;5015828;28;20053;-88
2022/08/18 12:21:50;;;;;;;3.80;2.28;;;27.60;91.40;;;;;;5015588;28;20068;-89
2022/08/18 12:24:20;;;;;;;;;;;27.60;91.50;;;;;;4997300;28;20475;-89
2022/08/18 12:26:46;;;;;;;4.82;2.15;;;27.40;91.60;;;;;;5013083;28;19905;-89
2022/08/18 12:29:12;;;;;;;3.10;2.30;;;27.20;92.00;;;;;;5015802;28;20363;-88
2022/08/18 12:31:38;;;;;;;3.85;1.90;;;27.20;91.80;;;;;;5016707;28;20077;-89
2022/08/18 12:34:04;;;;;;;2.40;1.65;;;27.20;91.90;;;;;;5012672;28;20033;-89
2022/08/18 12:36:30;;;;;;;2.88;1.77;;;27.20;91.70;;;;;;4996309;28;20042;-88
2022/08/18 12:38:56;;;;;;;3.28;1.90;;;27.20;91.40;;;;;;4997132;28;20474;-88
2022/08/18 12:41:21;;;;;;;2.53;1.30;;;27.30;91.30;;;;;;5007607;28;20033;-88
2022/08/18 12:43:47;;;;;;;2.85;1.48;;;27.30;91.30;;;;;;5015081;28;20025;-88
2022/08/18 12:46:13;;;;;;;3.50;2.05;;;27.40;91.00;;;;;;5014759;28;20033;-89
2022/08/18 12:48:38;;;;;;;2.45;1.67;;;27.30;91.00;;;;;;5016650;28;20081;-88
2022/08/18 12:51:05;;;;;;;2.92;1.77;;;27.30;91.10;;;;;;5016964;28;20029;-88
2022/08/18 12:53:31;;;;;;;4.22;1.70;;;27.30;91.30;;;;;;5015155;28;20026;-88
2022/08/18 12:55:57;;;;;;;3.75;2.30;;;27.20;91.20;;;;;;5008920;28;20041;-88
2022/08/18 12:58:23;;;;;;;4.68;2.20;;;27.20;91.20;;;;;;5007060;28;20101;-88
2022/08/18 13:00:48;;;;;;;4.68;2.20;;;27.10;91.10;;;;;;5012483;28;20048;-86
2022/08/18 13:03:14;;;;;;;4.10;1.77;;;27.00;91.60;;;;;;5015121;28;20523;-87
2022/08/18 13:05:39;;;;;;;2.33;1.60;;;27.00;91.70;;;;;;5015238;28;20022;-88
2022/08/18 13:08:13;;;;;;;4.95;1.67;;;27.00;91.80;;;;;;5015473;28;20029;-88
2022/08/18 13:10:39;;;;;;;3.83;2.03;;;27.00;91.70;;;;;;5015527;28;20037;-88
2022/08/18 13:13:04;;;;;;;3.90;2.30;;;26.90;91.60;;;;;;5014959;28;20022;-88
2022/08/18 13:15:31;;;;;;;2.95;2.40;;;26.90;91.60;;;;;;5014703;28;20034;-88
2022/08/18 13:17:57;;;;;;;3.72;2.10;;;26.80;91.70;;;;;;5014698;28;20072;-88